Jacobus, Pennsylvania
Current Conditions -  °F | °C
As of 9:53 PM on Tuesday 21 Oct 2014 (Local Time) from KTHV Reporting Station
Light Rain Light Rain  
Wind Chill: 52°   Ceiling: 6500
Heat Index: 52°   Visibility: 9mi
Dew Point: 50°   Wind: 3mph
Humidity: 93%   Direction: 260°W
Pressure: 29.91"   Gusts: NA
Location:  39.8833°N, 76.7196°W
Report Text: KTHV 220153Z AUTO 26003KT 9SM -RA OVC065 11/10 A2991 RMK AO2 SLP132 P0003 T01110100
Loading
Personal Weather Stations






























Interactive Weather Map
Tropical Storm Tracking
New forecast layout! Learn more

10-Day Weather Forecast

Advertisements
Track Severe Weather on mobile